sensor_id;sensor_type;location;lat;lon;timestamp;pressure;altitude;pressure_sealevel;temperature;humidity
25080;BME280;13071;48.868;9.996;2022-08-03T00:00:48;96627.53;;;18.57;81.11
25080;BME280;13071;48.868;9.996;2022-08-03T00:03:15;96627.16;;;18.62;81.35
25080;BME280;13071;48.868;9.996;2022-08-03T00:05:41;96628.31;;;18.57;81.13
25080;BME280;13071;48.868;9.996;2022-08-03T00:08:08;96616.78;;;18.37;81.81
25080;BME280;13071;48.868;9.996;2022-08-03T00:10:34;96628.09;;;18.32;82.47
25080;BME280;13071;48.868;9.996;2022-08-03T00:13:02;96614.84;;;18.38;82.09
25080;BME280;13071;48.868;9.996;2022-08-03T00:15:29;96627.03;;;18.44;81.96
25080;BME280;13071;48.868;9.996;2022-08-03T00:17:57;96622.69;;;18.39;82.04
25080;BME280;13071;48.868;9.996;2022-08-03T00:20:24;96617.16;;;18.36;82.34
25080;BME280;13071;48.868;9.996;2022-08-03T00:22:51;96626.59;;;18.38;82.41
25080;BME280;13071;48.868;9.996;2022-08-03T00:25:17;96621.81;;;18.28;82.42
25080;BME280;13071;48.868;9.996;2022-08-03T00:27:44;96617.03;;;18.18;82.96
25080;BME280;13071;48.868;9.996;2022-08-03T00:30:11;96615.06;;;18.15;83.13
25080;BME280;13071;48.868;9.996;2022-08-03T00:32:37;96601.66;;;18.06;83.15
25080;BME280;13071;48.868;9.996;2022-08-03T00:35:06;96606.81;;;18.11;83.19
25080;BME280;13071;48.868;9.996;2022-08-03T00:37:33;96605.38;;;18.28;82.78
25080;BME280;13071;48.868;9.996;2022-08-03T00:40:00;96606.81;;;18.11;83.15
25080;BME280;13071;48.868;9.996;2022-08-03T00:42:26;96608.75;;;18.11;82.80
25080;BME280;13071;48.868;9.996;2022-08-03T00:44:53;96602.09;;;18.08;83.09
25080;BME280;13071;48.868;9.996;2022-08-03T00:47:20;96600.50;;;18.07;83.26
25080;BME280;13071;48.868;9.996;2022-08-03T00:49:46;96603.63;;;18.06;83.15
25080;BME280;13071;48.868;9.996;2022-08-03T00:52:15;96600.88;;;18.02;83.09
25080;BME280;13071;48.868;9.996;2022-08-03T00:54:41;96611.78;;;17.95;83.38
25080;BME280;13071;48.868;9.996;2022-08-03T00:57:08;96607.09;;;17.99;83.43
25080;BME280;13071;48.868;9.996;2022-08-03T00:59:35;96614.09;;;17.97;83.42
25080;BME280;13071;48.868;9.996;2022-08-03T01:02:02;96609.75;;;17.92;83.57
25080;BME280;13071;48.868;9.996;2022-08-03T01:04:29;96614.44;;;17.88;83.77
25080;BME280;13071;48.868;9.996;2022-08-03T01:07:00;96617.59;;;17.90;83.84
25080;BME280;13071;48.868;9.996;2022-08-03T01:09:38;96605.06;;;17.89;83.57
25080;BME280;13071;48.868;9.996;2022-08-03T01:12:10;96610.84;;;17.81;83.61
25080;BME280;13071;48.868;9.996;2022-08-03T01:14:44;96603.66;;;17.65;84.14
25080;BME280;13071;48.868;9.996;2022-08-03T01:17:20;96610.66;;;17.63;84.83
25080;BME280;13071;48.868;9.996;2022-08-03T01:19:53;96609.13;;;17.65;84.70
25080;BME280;13071;48.868;9.996;2022-08-03T01:22:44;96611.03;;;17.61;84.61
25080;BME280;13071;48.868;9.996;2022-08-03T01:25:27;96602.44;;;17.63;84.77
25080;BME280;13071;48.868;9.996;2022-08-03T01:28:02;96599.69;;;17.59;84.61
25080;BME280;13071;48.868;9.996;2022-08-03T01:30:38;96594.22;;;17.59;85.00
25080;BME280;13071;48.868;9.996;2022-08-03T01:33:11;96602.28;;;17.49;85.30
25080;BME280;13071;48.868;9.996;2022-08-03T01:35:43;96597.94;;;17.44;85.78
25080;BME280;13071;48.868;9.996;2022-08-03T01:38:16;96598.38;;;17.50;85.68
25080;BME280;13071;48.868;9.996;2022-08-03T01:40:45;96602.31;;;17.52;85.23
25080;BME280;13071;48.868;9.996;2022-08-03T01:43:15;96594.84;;;17.49;85.38
25080;BME280;13071;48.868;9.996;2022-08-03T01:45:44;96593.25;;;17.45;85.49
25080;BME280;13071;48.868;9.996;2022-08-03T01:48:15;96590.09;;;17.43;85.66
25080;BME280;13071;48.868;9.996;2022-08-03T01:50:44;96589.03;;;17.51;85.23
25080;BME280;13071;48.868;9.996;2022-08-03T01:53:12;96589.63;;;17.37;85.87
25080;BME280;13071;48.868;9.996;2022-08-03T01:55:40;96582.56;;;17.33;86.01
25080;BME280;13071;48.868;9.996;2022-08-03T01:58:09;96592.66;;;17.28;86.17
25080;BME280;13071;48.868;9.996;2022-08-03T02:00:37;96579.44;;;17.31;85.96
25080;BME280;13071;48.868;9.996;2022-08-03T02:03:07;96584.13;;;17.34;85.67
25080;BME280;13071;48.868;9.996;2022-08-03T02:05:36;96594.63;;;17.28;85.86
25080;BME280;13071;48.868;9.996;2022-08-03T02:08:07;96586.84;;;17.30;86.08
25080;BME280;13071;48.868;9.996;2022-08-03T02:10:34;96580.22;;;17.31;86.09
25080;BME280;13071;48.868;9.996;2022-08-03T02:13:04;96581.34;;;17.26;86.21
25080;BME280;13071;48.868;9.996;2022-08-03T02:15:32;96588.16;;;17.10;86.77
25080;BME280;13071;48.868;9.996;2022-08-03T02:18:00;96574.78;;;17.01;87.21
25080;BME280;13071;48.868;9.996;2022-08-03T02:20:29;96580.66;;;17.03;87.37
25080;BME280;13071;48.868;9.996;2022-08-03T02:23:00;96580.59;;;16.96;88.17
25080;BME280;13071;48.868;9.996;2022-08-03T02:25:29;96572.78;;;16.98;87.76
25080;BME280;13071;48.868;9.996;2022-08-03T02:27:58;96576.25;;;16.92;87.94
25080;BME280;13071;48.868;9.996;2022-08-03T02:30:31;96582.53;;;16.96;87.82
25080;BME280;13071;48.868;9.996;2022-08-03T02:33:01;96573.88;;;16.90;87.61
25080;BME280;13071;48.868;9.996;2022-08-03T02:35:30;96568.75;;;16.89;87.51
25080;BME280;13071;48.868;9.996;2022-08-03T02:38:00;96580.41;;;16.82;87.91
25080;BME280;13071;48.868;9.996;2022-08-03T02:40:29;96576.09;;;16.81;88.22
25080;BME280;13071;48.868;9.996;2022-08-03T02:42:59;96571.91;;;16.91;88.14
25080;BME280;13071;48.868;9.996;2022-08-03T02:45:26;96572.28;;;16.89;88.27
25080;BME280;13071;48.868;9.996;2022-08-03T02:47:56;96576.59;;;16.90;88.30
25080;BME280;13071;48.868;9.996;2022-08-03T02:50:24;96571.50;;;16.89;88.51
25080;BME280;13071;48.868;9.996;2022-08-03T02:52:54;96567.94;;;16.84;88.66
25080;BME280;13071;48.868;9.996;2022-08-03T02:55:23;96569.00;;;16.76;88.94
25080;BME280;13071;48.868;9.996;2022-08-03T02:57:51;96562.66;;;16.69;89.37
25080;BME280;13071;48.868;9.996;2022-08-03T03:00:19;96562.28;;;16.70;89.11
25080;BME280;13071;48.868;9.996;2022-08-03T03:02:46;96564.59;;;16.68;88.83
25080;BME280;13071;48.868;9.996;2022-08-03T03:05:13;96564.22;;;16.70;89.05
25080;BME280;13071;48.868;9.996;2022-08-03T03:07:41;96565.09;;;16.77;88.28
25080;BME280;13071;48.868;9.996;2022-08-03T03:10:09;96566.22;;;16.73;88.37
25080;BME280;13071;48.868;9.996;2022-08-03T03:12:37;96572.06;;;16.71;88.17
25080;BME280;13071;48.868;9.996;2022-08-03T03:15:05;96567.66;;;16.63;88.59
25080;BME280;13071;48.868;9.996;2022-08-03T03:17:32;96571.56;;;16.62;88.88
25080;BME280;13071;48.868;9.996;2022-08-03T03:20:00;96564.59;;;16.68;88.31
25080;BME280;13071;48.868;9.996;2022-08-03T03:22:28;96567.66;;;16.63;88.21
25080;BME280;13071;48.868;9.996;2022-08-03T03:24:56;96569.13;;;16.57;88.52
25080;BME280;13071;48.868;9.996;2022-08-03T03:27:25;96564.78;;;16.53;89.22
25080;BME280;13071;48.868;9.996;2022-08-03T03:29:51;96571.19;;;16.37;89.88
25080;BME280;13071;48.868;9.996;2022-08-03T03:32:18;96572.38;;;16.40;90.21
25080;BME280;13071;48.868;9.996;2022-08-03T03:34:45;96574.47;;;16.50;89.52
25080;BME280;13071;48.868;9.996;2022-08-03T03:37:13;96575.22;;;16.47;89.62
25080;BME280;13071;48.868;9.996;2022-08-03T03:39:39;96573.31;;;16.51;88.86
25080;BME280;13071;48.868;9.996;2022-08-03T03:42:06;96576.09;;;16.55;88.50
25080;BME280;13071;48.868;9.996;2022-08-03T03:44:34;96572.97;;;16.53;88.52
25080;BME280;13071;48.868;9.996;2022-08-03T03:47:01;96571.41;;;16.55;88.10
25080;BME280;13071;48.868;9.996;2022-08-03T03:49:28;96569.81;;;16.51;88.35
25080;BME280;13071;48.868;9.996;2022-08-03T03:51:55;96566.72;;;16.52;88.48
25080;BME280;13071;48.868;9.996;2022-08-03T03:54:21;96565.97;;;16.55;88.55
25080;BME280;13071;48.868;9.996;2022-08-03T03:56:48;96576.47;;;16.53;88.92
25080;BME280;13071;48.868;9.996;2022-08-03T03:59:15;96567.25;;;16.61;88.76
25080;BME280;13071;48.868;9.996;2022-08-03T04:01:43;96576.72;;;16.67;88.71
25080;BME280;13071;48.868;9.996;2022-08-03T04:04:09;96575.50;;;16.65;88.55
25080;BME280;13071;48.868;9.996;2022-08-03T04:06:59;96570.59;;;16.51;88.71
25080;BME280;13071;48.868;9.996;2022-08-03T04:09:44;96565.91;;;16.52;88.19
25080;BME280;13071;48.868;9.996;2022-08-03T04:12:30;96564.78;;;16.53;88.65
25080;BME280;13071;48.868;9.996;2022-08-03T04:14:58;96564.41;;;16.58;88.73
25080;BME280;13071;48.868;9.996;2022-08-03T04:17:27;96566.28;;;17.10;88.00
25080;BME280;13071;48.868;9.996;2022-08-03T04:19:56;96568.47;;;18.11;83.58
25080;BME280;13071;48.868;9.996;2022-08-03T04:22:27;96572.13;;;18.95;79.01
25080;BME280;13071;48.868;9.996;2022-08-03T04:25:00;96571.22;;;19.77;76.05
25080;BME280;13071;48.868;9.996;2022-08-03T04:27:32;96570.03;;;20.67;71.68
25080;BME280;13071;48.868;9.996;2022-08-03T04:30:02;96573.19;;;21.56;67.94
25080;BME280;13071;48.868;9.996;2022-08-03T04:32:30;96578.13;;;22.37;65.79
25080;BME280;13071;48.868;9.996;2022-08-03T04:34:57;96578.00;;;22.93;64.32
25080;BME280;13071;48.868;9.996;2022-08-03T04:37:32;96568.38;;;23.38;62.30
25080;BME280;13071;48.868;9.996;2022-08-03T04:40:01;96566.03;;;24.21;59.56
25080;BME280;13071;48.868;9.996;2022-08-03T04:42:30;96574.56;;;24.73;58.70
25080;BME280;13071;48.868;9.996;2022-08-03T04:44:58;96566.69;;;25.14;57.48
25080;BME280;13071;48.868;9.996;2022-08-03T04:47:26;96570.78;;;25.65;56.67
25080;BME280;13071;48.868;9.996;2022-08-03T04:49:54;96566.59;;;25.93;55.75
25080;BME280;13071;48.868;9.996;2022-08-03T04:52:21;96560.81;;;26.36;54.94
25080;BME280;13071;48.868;9.996;2022-08-03T04:54:48;96559.53;;;26.70;53.73
25080;BME280;13071;48.868;9.996;2022-08-03T04:57:15;96563.19;;;27.12;52.78
25080;BME280;13071;48.868;9.996;2022-08-03T04:59:42;96568.44;;;27.22;52.49
25080;BME280;13071;48.868;9.996;2022-08-03T05:02:08;96558.59;;;27.46;52.73
25080;BME280;13071;48.868;9.996;2022-08-03T05:04:35;96555.19;;;27.80;51.62
25080;BME280;13071;48.868;9.996;2022-08-03T05:07:06;96565.88;;;28.07;51.82
25080;BME280;13071;48.868;9.996;2022-08-03T05:09:33;96565.69;;;28.27;51.12
25080;BME280;13071;48.868;9.996;2022-08-03T05:12:00;96562.66;;;27.83;51.73
25080;BME280;13071;48.868;9.996;2022-08-03T05:14:27;96569.22;;;27.77;52.45
25080;BME280;13071;48.868;9.996;2022-08-03T05:16:54;96569.00;;;26.56;53.91
25080;BME280;13071;48.868;9.996;2022-08-03T05:19:20;96570.69;;;26.53;54.04
25080;BME280;13071;48.868;9.996;2022-08-03T05:21:47;96572.19;;;26.87;53.65
25080;BME280;13071;48.868;9.996;2022-08-03T05:24:15;96571.31;;;26.90;54.03
25080;BME280;13071;48.868;9.996;2022-08-03T05:26:41;96571.78;;;27.71;52.15
25080;BME280;13071;48.868;9.996;2022-08-03T05:29:08;96565.66;;;27.22;52.93
25080;BME280;13071;48.868;9.996;2022-08-03T05:31:35;96574.13;;;26.09;56.13
25080;BME280;13071;48.868;9.996;2022-08-03T05:34:01;96575.69;;;25.94;56.75
25080;BME280;13071;48.868;9.996;2022-08-03T05:36:28;96573.81;;;24.49;60.14
25080;BME280;13071;48.868;9.996;2022-08-03T05:38:54;96579.50;;;24.15;61.79
25080;BME280;13071;48.868;9.996;2022-08-03T05:41:22;96581.88;;;24.40;62.14
25080;BME280;13071;48.868;9.996;2022-08-03T05:43:49;96593.44;;;24.08;62.37
25080;BME280;13071;48.868;9.996;2022-08-03T05:46:16;96587.41;;;23.90;64.03
25080;BME280;13071;48.868;9.996;2022-08-03T05:48:43;96581.97;;;23.56;65.24
25080;BME280;13071;48.868;9.996;2022-08-03T05:51:10;96583.63;;;23.50;65.92
25080;BME280;13071;48.868;9.996;2022-08-03T05:53:37;96596.44;;;23.67;64.72
25080;BME280;13071;48.868;9.996;2022-08-03T05:56:04;96582.50;;;23.74;64.96
25080;BME280;13071;48.868;9.996;2022-08-03T05:58:32;96590.56;;;24.15;63.83
25080;BME280;13071;48.868;9.996;2022-08-03T06:00:59;96591.00;;;23.87;65.39
25080;BME280;13071;48.868;9.996;2022-08-03T06:03:25;96593.97;;;23.99;65.21
25080;BME280;13071;48.868;9.996;2022-08-03T06:05:53;96589.53;;;24.05;65.82
25080;BME280;13071;48.868;9.996;2022-08-03T06:08:20;96586.41;;;24.30;64.72
25080;BME280;13071;48.868;9.996;2022-08-03T06:10:47;96585.84;;;24.39;64.63
25080;BME280;13071;48.868;9.996;2022-08-03T06:13:14;96590.59;;;24.38;64.85
25080;BME280;13071;48.868;9.996;2022-08-03T06:15:42;96589.72;;;24.22;66.04
25080;BME280;13071;48.868;9.996;2022-08-03T06:18:08;96591.31;;;24.42;66.96
25080;BME280;13071;48.868;9.996;2022-08-03T06:20:35;96581.28;;;24.52;66.50
25080;BME280;13071;48.868;9.996;2022-08-03T06:23:02;96588.81;;;24.51;66.74
25080;BME280;13071;48.868;9.996;2022-08-03T06:25:28;96587.72;;;24.22;67.36
25080;BME280;13071;48.868;9.996;2022-08-03T06:27:55;96602.00;;;23.90;68.59
25080;BME280;13071;48.868;9.996;2022-08-03T06:30:22;96598.59;;;23.79;70.15
25080;BME280;13071;48.868;9.996;2022-08-03T06:32:50;96590.38;;;24.29;69.02
25080;BME280;13071;48.868;9.996;2022-08-03T06:35:16;96588.06;;;24.47;68.50
25080;BME280;13071;48.868;9.996;2022-08-03T06:37:43;96586.16;;;24.44;68.49
25080;BME280;13071;48.868;9.996;2022-08-03T06:40:11;96588.38;;;24.53;67.76
25080;BME280;13071;48.868;9.996;2022-08-03T06:42:38;96596.72;;;24.73;68.16
25080;BME280;13071;48.868;9.996;2022-08-03T06:45:05;96584.09;;;24.95;67.03
25080;BME280;13071;48.868;9.996;2022-08-03T06:47:33;96587.69;;;25.12;67.24
25080;BME280;13071;48.868;9.996;2022-08-03T06:50:01;96589.63;;;25.34;64.93
25080;BME280;13071;48.868;9.996;2022-08-03T06:52:28;96581.78;;;25.69;66.24
25080;BME280;13071;48.868;9.996;2022-08-03T06:54:55;96589.56;;;25.58;66.49
25080;BME280;13071;48.868;9.996;2022-08-03T06:57:22;96581.31;;;25.90;66.12
25080;BME280;13071;48.868;9.996;2022-08-03T06:59:49;96591.03;;;26.14;64.76
25080;BME280;13071;48.868;9.996;2022-08-03T07:02:16;96593.13;;;26.27;63.50
25080;BME280;13071;48.868;9.996;2022-08-03T07:04:44;96591.63;;;26.54;61.30
25080;BME280;13071;48.868;9.996;2022-08-03T07:07:12;96591.84;;;26.47;59.10
25080;BME280;13071;48.868;9.996;2022-08-03T07:09:39;96592.75;;;26.73;54.58
25080;BME280;13071;48.868;9.996;2022-08-03T07:12:06;96590.84;;;27.15;55.08
25080;BME280;13071;48.868;9.996;2022-08-03T07:14:32;96587.59;;;27.33;52.86
25080;BME280;13071;48.868;9.996;2022-08-03T07:16:59;96590.22;;;27.53;52.83
25080;BME280;13071;48.868;9.996;2022-08-03T07:19:25;96591.91;;;27.63;52.89
25080;BME280;13071;48.868;9.996;2022-08-03T07:21:52;96578.34;;;27.77;50.86
25080;BME280;13071;48.868;9.996;2022-08-03T07:24:20;96584.00;;;27.99;50.97
25080;BME280;13071;48.868;9.996;2022-08-03T07:26:47;96579.00;;;27.94;50.16
25080;BME280;13071;48.868;9.996;2022-08-03T07:29:13;96584.59;;;28.07;50.51
25080;BME280;13071;48.868;9.996;2022-08-03T07:31:40;96582.69;;;28.29;50.06
25080;BME280;13071;48.868;9.996;2022-08-03T07:34:07;96582.34;;;28.40;50.02
25080;BME280;13071;48.868;9.996;2022-08-03T07:36:33;96576.38;;;28.63;49.79
25080;BME280;13071;48.868;9.996;2022-08-03T07:39:00;96578.16;;;28.69;47.76
25080;BME280;13071;48.868;9.996;2022-08-03T07:41:28;96569.47;;;28.67;48.02
25080;BME280;13071;48.868;9.996;2022-08-03T07:43:56;96571.38;;;28.70;47.70
25080;BME280;13071;48.868;9.996;2022-08-03T07:46:23;96575.94;;;28.64;47.45
25080;BME280;13071;48.868;9.996;2022-08-03T07:48:49;96573.59;;;28.63;48.32
25080;BME280;13071;48.868;9.996;2022-08-03T07:51:17;96576.81;;;28.74;47.29
25080;BME280;13071;48.868;9.996;2022-08-03T07:53:43;96580.06;;;28.60;46.69
25080;BME280;13071;48.868;9.996;2022-08-03T07:56:10;96577.56;;;28.87;46.09
25080;BME280;13071;48.868;9.996;2022-08-03T07:58:38;96574.84;;;28.96;45.65
25080;BME280;13071;48.868;9.996;2022-08-03T08:01:04;96571.03;;;29.03;45.50
25080;BME280;13071;48.868;9.996;2022-08-03T08:03:31;96568.47;;;28.74;45.94
25080;BME280;13071;48.868;9.996;2022-08-03T08:05:58;96567.75;;;28.83;46.76
25080;BME280;13071;48.868;9.996;2022-08-03T08:08:24;96574.28;;;28.54;46.44
25080;BME280;13071;48.868;9.996;2022-08-03T08:10:51;96574.25;;;28.80;46.48
25080;BME280;13071;48.868;9.996;2022-08-03T08:13:18;96566.63;;;28.46;46.34
25080;BME280;13071;48.868;9.996;2022-08-03T08:15:46;96571.53;;;28.89;46.59
25080;BME280;13071;48.868;9.996;2022-08-03T08:18:12;96561.38;;;29.16;45.45
25080;BME280;13071;48.868;9.996;2022-08-03T08:20:39;96559.25;;;29.21;44.93
25080;BME280;13071;48.868;9.996;2022-08-03T08:23:07;96567.47;;;29.02;46.22
25080;BME280;13071;48.868;9.996;2022-08-03T08:25:34;96563.91;;;29.24;45.17
25080;BME280;13071;48.868;9.996;2022-08-03T08:28:01;96563.41;;;29.38;44.70
25080;BME280;13071;48.868;9.996;2022-08-03T08:30:31;96559.06;;;29.58;46.03
25080;BME280;13071;48.868;9.996;2022-08-03T08:32:59;96571.44;;;29.14;46.03
25080;BME280;13071;48.868;9.996;2022-08-03T08:35:26;96562.56;;;29.28;45.61
25080;BME280;13071;48.868;9.996;2022-08-03T08:37:53;96567.28;;;29.62;44.30
25080;BME280;13071;48.868;9.996;2022-08-03T08:40:20;96559.56;;;29.75;44.55
25080;BME280;13071;48.868;9.996;2022-08-03T08:42:47;96561.28;;;29.73;43.76
25080;BME280;13071;48.868;9.996;2022-08-03T08:45:14;96572.66;;;29.56;45.75
25080;BME280;13071;48.868;9.996;2022-08-03T08:47:44;96561.25;;;29.64;46.07
25080;BME280;13071;48.868;9.996;2022-08-03T08:50:14;96565.53;;;29.55;43.97
25080;BME280;13071;48.868;9.996;2022-08-03T08:52:45;96562.44;;;29.53;43.90
25080;BME280;13071;48.868;9.996;2022-08-03T08:55:14;96560.50;;;29.72;43.24
25080;BME280;13071;48.868;9.996;2022-08-03T08:57:47;96562.56;;;29.81;44.38
25080;BME280;13071;48.868;9.996;2022-08-03T09:00:15;96560.59;;;29.90;43.27
25080;BME280;13071;48.868;9.996;2022-08-03T09:02:43;96560.53;;;29.81;44.19
25080;BME280;13071;48.868;9.996;2022-08-03T09:05:13;96563.28;;;29.72;44.59
25080;BME280;13071;48.868;9.996;2022-08-03T09:07:40;96566.56;;;30.01;44.02
25080;BME280;13071;48.868;9.996;2022-08-03T09:10:08;96556.34;;;30.08;42.78
25080;BME280;13071;48.868;9.996;2022-08-03T09:12:38;96563.00;;;30.10;43.29
25080;BME280;13071;48.868;9.996;2022-08-03T09:15:21;96559.53;;;30.37;42.87
25080;BME280;13071;48.868;9.996;2022-08-03T09:17:49;96559.56;;;30.46;42.08
25080;BME280;13071;48.868;9.996;2022-08-03T09:20:20;96557.78;;;30.21;42.93
25080;BME280;13071;48.868;9.996;2022-08-03T09:22:54;96562.72;;;30.17;43.31
25080;BME280;13071;48.868;9.996;2022-08-03T09:25:26;96560.53;;;30.61;41.38
25080;BME280;13071;48.868;9.996;2022-08-03T09:27:53;96557.91;;;30.76;40.94
25080;BME280;13071;48.868;9.996;2022-08-03T09:30:20;96562.59;;;30.21;41.03
25080;BME280;13071;48.868;9.996;2022-08-03T09:32:46;96564.38;;;30.06;41.83
25080;BME280;13071;48.868;9.996;2022-08-03T09:35:13;96563.34;;;30.21;41.75
25080;BME280;13071;48.868;9.996;2022-08-03T09:37:41;96562.59;;;30.21;40.25
25080;BME280;13071;48.868;9.996;2022-08-03T09:40:09;96560.75;;;30.27;41.17
25080;BME280;13071;48.868;9.996;2022-08-03T09:42:35;96563.38;;;30.30;42.24
25080;BME280;13071;48.868;9.996;2022-08-03T09:45:04;96553.16;;;30.36;41.14
25080;BME280;13071;48.868;9.996;2022-08-03T09:47:32;96558.19;;;30.60;40.33
25080;BME280;13071;48.868;9.996;2022-08-03T09:50:03;96565.66;;;30.63;39.01
25080;BME280;13071;48.868;9.996;2022-08-03T09:52:31;96559.69;;;30.42;38.95
25080;BME280;13071;48.868;9.996;2022-08-03T09:55:01;96562.31;;;30.37;42.32
25080;BME280;13071;48.868;9.996;2022-08-03T09:57:28;96556.19;;;30.60;40.29
25080;BME280;13071;48.868;9.996;2022-08-03T10:00:05;96544.38;;;30.74;41.62
25080;BME280;13071;48.868;9.996;2022-08-03T10:02:34;96556.66;;;30.77;40.93
25080;BME280;13071;48.868;9.996;2022-08-03T10:05:01;96552.38;;;30.36;42.25
25080;BME280;13071;48.868;9.996;2022-08-03T10:07:29;96548.59;;;30.12;40.46
25080;BME280;13071;48.868;9.996;2022-08-03T10:09:57;96545.41;;;30.40;42.03
25080;BME280;13071;48.868;9.996;2022-08-03T10:12:26;96550.75;;;30.48;42.61
25080;BME280;13071;48.868;9.996;2022-08-03T10:14:53;96541.44;;;30.51;41.74
25080;BME280;13071;48.868;9.996;2022-08-03T10:17:21;96548.41;;;30.55;41.86
25080;BME280;13071;48.868;9.996;2022-08-03T10:19:48;96538.19;;;30.70;41.54
25080;BME280;13071;48.868;9.996;2022-08-03T10:22:18;96540.22;;;30.88;39.90
25080;BME280;13071;48.868;9.996;2022-08-03T10:24:48;96533.38;;;31.25;39.95
25080;BME280;13071;48.868;9.996;2022-08-03T10:27:17;96536.84;;;31.02;38.90
25080;BME280;13071;48.868;9.996;2022-08-03T10:29:49;96536.06;;;31.02;39.69
25080;BME280;13071;48.868;9.996;2022-08-03T10:32:20;96537.41;;;31.24;39.87
25080;BME280;13071;48.868;9.996;2022-08-03T10:34:49;96536.50;;;31.27;40.63
25080;BME280;13071;48.868;9.996;2022-08-03T10:37:16;96531.97;;;31.30;39.48
25080;BME280;13071;48.868;9.996;2022-08-03T10:39:44;96533.06;;;31.33;40.84
25080;BME280;13071;48.868;9.996;2022-08-03T10:42:20;96518.19;;;31.17;40.22
25080;BME280;13071;48.868;9.996;2022-08-03T10:44:53;96520.84;;;31.03;41.28
25080;BME280;13071;48.868;9.996;2022-08-03T10:47:21;96514.91;;;31.01;40.27
25080;BME280;13071;48.868;9.996;2022-08-03T10:49:48;96513.50;;;30.96;42.09
25080;BME280;13071;48.868;9.996;2022-08-03T10:52:15;96510.72;;;31.14;40.41
25080;BME280;13071;48.868;9.996;2022-08-03T10:54:43;96508.69;;;31.15;40.09
25080;BME280;13071;48.868;9.996;2022-08-03T10:57:48;96504.97;;;31.00;39.83
25080;BME280;13071;48.868;9.996;2022-08-03T11:00:18;96497.63;;;31.29;40.51
25080;BME280;13071;48.868;9.996;2022-08-03T11:03:05;96503.50;;;31.59;39.46
25080;BME280;13071;48.868;9.996;2022-08-03T11:05:34;96502.75;;;31.40;40.41
25080;BME280;13071;48.868;9.996;2022-08-03T11:08:27;96495.09;;;31.59;38.85
25080;BME280;13071;48.868;9.996;2022-08-03T11:10:58;96498.81;;;31.65;39.60
25080;BME280;13071;48.868;9.996;2022-08-03T11:13:28;96497.94;;;31.41;40.20
25080;BME280;13071;48.868;9.996;2022-08-03T11:15:59;96494.63;;;31.60;39.62
25080;BME280;13071;48.868;9.996;2022-08-03T11:18:27;96491.88;;;31.33;39.04
25080;BME280;13071;48.868;9.996;2022-08-03T11:20:55;96500.13;;;31.37;38.83
25080;BME280;13071;48.868;9.996;2022-08-03T11:23:40;96494.22;;;31.35;39.47
25080;BME280;13071;48.868;9.996;2022-08-03T11:26:12;96497.03;;;31.25;40.22
25080;BME280;13071;48.868;9.996;2022-08-03T11:28:40;96496.31;;;31.07;39.22
25080;BME280;13071;48.868;9.996;2022-08-03T11:31:45;96493.41;;;31.43;40.94
25080;BME280;13071;48.868;9.996;2022-08-03T11:34:14;96491.53;;;31.58;40.79
25080;BME280;13071;48.868;9.996;2022-08-03T11:37:17;96494.19;;;31.44;39.38
25080;BME280;13071;48.868;9.996;2022-08-03T11:39:45;96492.00;;;31.48;38.73
25080;BME280;13071;48.868;9.996;2022-08-03T11:42:37;96490.59;;;31.43;39.52
25080;BME280;13071;48.868;9.996;2022-08-03T11:45:06;96487.19;;;31.48;39.96
25080;BME280;13071;48.868;9.996;2022-08-03T11:47:36;96492.16;;;31.44;39.48
25080;BME280;13071;48.868;9.996;2022-08-03T11:50:05;96492.75;;;31.48;38.82
25080;BME280;13071;48.868;9.996;2022-08-03T11:52:37;96491.88;;;31.33;38.99
25080;BME280;13071;48.868;9.996;2022-08-03T11:55:12;96485.69;;;31.29;40.34
25080;BME280;13071;48.868;9.996;2022-08-03T11:57:38;96481.47;;;31.34;38.60
25080;BME280;13071;48.868;9.996;2022-08-03T12:00:26;96482.09;;;31.38;39.35
25080;BME280;13071;48.868;9.996;2022-08-03T12:03:00;96471.28;;;31.12;38.02
25080;BME280;13071;48.868;9.996;2022-08-03T12:05:42;96465.38;;;31.10;40.25
25080;BME280;13071;48.868;9.996;2022-08-03T12:08:10;96476.47;;;31.47;40.58
25080;BME280;13071;48.868;9.996;2022-08-03T12:10:38;96479.53;;;31.67;39.18
25080;BME280;13071;48.868;9.996;2022-08-03T12:13:06;96476.38;;;31.74;39.10
25080;BME280;13071;48.868;9.996;2022-08-03T12:15:34;96479.91;;;31.42;38.91
25080;BME280;13071;48.868;9.996;2022-08-03T12:18:12;96481.53;;;30.97;38.18
25080;BME280;13071;48.868;9.996;2022-08-03T12:20:39;96474.22;;;31.09;38.23
25080;BME280;13071;48.868;9.996;2022-08-03T12:23:07;96471.31;;;31.03;38.70
25080;BME280;13071;48.868;9.996;2022-08-03T12:25:35;96471.44;;;30.91;38.83
25080;BME280;13071;48.868;9.996;2022-08-03T12:28:07;96460.59;;;31.02;39.85
25080;BME280;13071;48.868;9.996;2022-08-03T12:30:34;96462.56;;;31.19;38.51
25080;BME280;13071;48.868;9.996;2022-08-03T12:33:12;96453.63;;;30.88;39.67
25080;BME280;13071;48.868;9.996;2022-08-03T12:35:39;96453.09;;;30.99;38.47
25080;BME280;13071;48.868;9.996;2022-08-03T12:38:05;96459.94;;;31.16;38.93
25080;BME280;13071;48.868;9.996;2022-08-03T12:40:32;96453.22;;;31.32;39.92
25080;BME280;13071;48.868;9.996;2022-08-03T12:42:59;96449.78;;;31.79;37.89
25080;BME280;13071;48.868;9.996;2022-08-03T12:45:26;96460.19;;;31.78;38.70
25080;BME280;13071;48.868;9.996;2022-08-03T12:47:57;96452.16;;;31.20;38.90
25080;BME280;13071;48.868;9.996;2022-08-03T12:50:28;96451.63;;;31.40;38.52
25080;BME280;13071;48.868;9.996;2022-08-03T12:52:55;96456.81;;;31.23;38.90
25080;BME280;13071;48.868;9.996;2022-08-03T12:55:24;96455.84;;;31.35;39.22
25080;BME280;13071;48.868;9.996;2022-08-03T12:57:57;96457.97;;;31.49;37.90
25080;BME280;13071;48.868;9.996;2022-08-03T13:00:24;96452.50;;;31.13;38.71
25080;BME280;13071;48.868;9.996;2022-08-03T13:02:58;96450.72;;;31.43;39.32
25080;BME280;13071;48.868;9.996;2022-08-03T13:05:27;96449.56;;;31.49;38.70
25080;BME280;13071;48.868;9.996;2022-08-03T13:07:54;96450.66;;;30.92;39.55
25080;BME280;13071;48.868;9.996;2022-08-03T13:10:29;96449.44;;;31.44;38.87